createdAt,value
2023-01-13T00:01:28.015Z,3.73
2023-01-13T00:03:56.049Z,3.57
2023-01-13T00:06:27.897Z,4.00
2023-01-13T00:08:55.181Z,3.70
2023-01-13T00:11:22.906Z,3.27
2023-01-13T00:13:49.741Z,3.23
2023-01-13T00:16:18.259Z,4.47
2023-01-13T00:18:46.083Z,4.57
2023-01-13T00:21:12.969Z,3.83
2023-01-13T00:23:40.683Z,3.27
2023-01-13T00:26:13.880Z,3.87
2023-01-13T00:28:40.868Z,3.00
2023-01-13T00:31:10.016Z,3.20
2023-01-13T00:33:37.141Z,4.80
2023-01-13T00:36:05.981Z,5.63
2023-01-13T00:38:34.540Z,3.47
2023-01-13T00:41:04.533Z,3.20
2023-01-13T00:43:33.078Z,5.73
2023-01-13T00:46:00.000Z,4.37
2023-01-13T00:48:28.193Z,4.27
2023-01-13T00:51:00.412Z,6.10
2023-01-13T00:53:28.502Z,4.67
2023-01-13T00:56:02.000Z,7.10
2023-01-13T00:58:31.772Z,7.30
2023-01-13T01:01:08.443Z,7.83
2023-01-13T01:03:36.061Z,4.93
2023-01-13T01:06:25.831Z,5.50
2023-01-13T01:08:54.255Z,4.97
2023-01-13T01:11:24.428Z,7.27
2023-01-13T01:13:52.698Z,9.07
2023-01-13T01:16:22.045Z,12.37
2023-01-13T01:18:50.312Z,10.97
2023-01-13T01:21:18.814Z,11.87
2023-01-13T01:23:45.945Z,8.97
2023-01-13T01:26:16.299Z,6.27
2023-01-13T01:28:43.981Z,5.47
2023-01-13T01:31:15.301Z,7.13
2023-01-13T01:33:42.726Z,4.47
2023-01-13T01:36:11.866Z,4.97
2023-01-13T01:38:39.081Z,4.67
2023-01-13T01:41:06.880Z,4.73
2023-01-13T01:43:59.954Z,4.67
2023-01-13T01:46:31.740Z,4.83
2023-01-13T01:49:11.160Z,4.97
2023-01-13T01:52:11.662Z,7.17
2023-01-13T01:54:42.502Z,7.60
2023-01-13T01:57:14.054Z,5.13
2023-01-13T01:59:41.777Z,5.73
2023-01-13T02:02:09.111Z,6.10
2023-01-13T02:04:43.285Z,5.10
2023-01-13T02:07:10.622Z,6.57
2023-01-13T02:09:37.777Z,3.30
2023-01-13T02:12:22.983Z,3.50
2023-01-13T02:14:49.857Z,5.63
2023-01-13T02:17:19.645Z,4.33
2023-01-13T02:19:58.574Z,3.10
2023-01-13T02:22:46.955Z,4.37
2023-01-13T02:25:50.953Z,3.83
2023-01-13T02:29:12.424Z,5.50
2023-01-13T02:31:43.915Z,3.63
2023-01-13T02:34:17.616Z,4.83
2023-01-13T02:36:57.790Z,4.83
2023-01-13T02:39:36.381Z,3.50
2023-01-13T02:42:33.155Z,3.10
2023-01-13T02:45:29.539Z,3.77
2023-01-13T02:47:59.486Z,4.03
2023-01-13T02:50:35.282Z,4.70
2023-01-13T02:53:11.767Z,3.80
2023-01-13T02:55:43.352Z,7.07
2023-01-13T02:58:15.604Z,3.60
2023-01-13T03:00:43.631Z,2.83
2023-01-13T03:03:10.530Z,3.67
2023-01-13T03:05:38.456Z,2.87
2023-01-13T03:08:23.576Z,2.77
2023-01-13T03:11:03.298Z,2.70
2023-01-13T03:13:55.758Z,4.90
2023-01-13T03:16:59.500Z,4.60
2023-01-13T03:19:38.596Z,4.20
2023-01-13T03:22:14.251Z,2.90
2023-01-13T03:24:47.795Z,3.87
2023-01-13T03:27:14.812Z,3.67
2023-01-13T03:29:53.299Z,4.23
2023-01-13T03:32:38.358Z,5.10
2023-01-13T03:35:09.492Z,6.80
2023-01-13T03:37:41.467Z,3.33
2023-01-13T03:40:17.385Z,5.63
2023-01-13T03:43:08.588Z,4.33
2023-01-13T03:45:37.238Z,6.37
2023-01-13T03:48:10.707Z,4.60
2023-01-13T03:50:44.489Z,3.90
2023-01-13T03:53:16.813Z,5.03
2023-01-13T03:56:18.474Z,6.70
2023-01-13T03:58:49.320Z,5.03
2023-01-13T04:01:16.253Z,5.90
2023-01-13T04:03:52.049Z,6.97
2023-01-13T04:06:46.336Z,7.53
2023-01-13T04:09:20.313Z,11.53
2023-01-13T04:11:54.454Z,14.67
2023-01-13T04:14:24.611Z,15.70
2023-01-13T04:16:54.289Z,16.17
2023-01-13T04:19:21.726Z,16.33
2023-01-13T04:21:48.620Z,11.27
2023-01-13T04:24:15.485Z,10.10
2023-01-13T04:26:42.338Z,9.37
2023-01-13T04:29:09.233Z,5.30
2023-01-13T04:31:36.110Z,4.73
2023-01-13T04:34:03.215Z,7.27
2023-01-13T04:36:30.165Z,4.03
2023-01-13T04:38:57.230Z,7.53
2023-01-13T04:41:24.131Z,3.27
2023-01-13T04:43:50.965Z,3.63
2023-01-13T04:46:17.902Z,3.73
2023-01-13T04:48:44.873Z,2.73
2023-01-13T04:51:11.672Z,4.30
2023-01-13T04:53:38.513Z,3.10
2023-01-13T04:56:05.774Z,4.40
2023-01-13T04:58:32.607Z,5.43
2023-01-13T05:00:59.564Z,3.33
2023-01-13T05:03:27.142Z,4.87
2023-01-13T05:05:54.124Z,5.90
2023-01-13T05:08:21.039Z,5.23
2023-01-13T05:10:47.885Z,7.30
2023-01-13T05:13:33.280Z,5.27
2023-01-13T05:16:19.933Z,3.97
2023-01-13T05:18:47.120Z,4.47
2023-01-13T05:21:33.958Z,4.77
2023-01-13T05:24:19.309Z,4.43
2023-01-13T05:26:46.224Z,4.80
2023-01-13T05:29:13.048Z,4.63
2023-01-13T05:31:40.044Z,4.30
2023-01-13T05:34:06.923Z,4.37
2023-01-13T05:36:33.823Z,7.03
2023-01-13T05:39:00.810Z,4.93
2023-01-13T05:41:46.311Z,3.30
2023-01-13T05:44:13.291Z,4.33
2023-01-13T05:46:42.036Z,6.77
2023-01-13T05:49:09.043Z,5.43
2023-01-13T05:51:35.866Z,5.13
2023-01-13T05:54:02.853Z,5.70
2023-01-13T05:56:29.807Z,5.70
2023-01-13T05:58:56.827Z,5.73
2023-01-13T06:01:23.832Z,4.70
2023-01-13T06:03:51.123Z,5.40
2023-01-13T06:06:18.887Z,6.50
2023-01-13T06:08:46.388Z,8.63
2023-01-13T06:11:13.396Z,8.17
2023-01-13T06:13:40.286Z,11.03
2023-01-13T06:16:07.415Z,8.83
2023-01-13T06:18:34.395Z,11.97
2023-01-13T06:21:01.420Z,10.27
2023-01-13T06:23:28.908Z,13.80
2023-01-13T06:26:03.527Z,9.60
2023-01-13T06:28:30.385Z,7.83
2023-01-13T06:31:00.926Z,6.90
2023-01-13T06:33:33.501Z,6.87
2023-01-13T06:36:06.444Z,6.47
2023-01-13T06:38:35.955Z,9.30
2023-01-13T06:41:04.511Z,9.50
2023-01-13T06:43:32.031Z,10.70
2023-01-13T06:46:02.488Z,11.47
2023-01-13T06:48:35.801Z,9.40
2023-01-13T06:51:04.560Z,12.27
2023-01-13T14:45:45.318Z,11.23
2023-01-13T14:48:14.079Z,5.57
2023-01-13T14:57:29.396Z,6.80
2023-01-13T15:00:05.075Z,4.80
2023-01-13T15:02:35.522Z,9.73
2023-01-13T15:05:17.807Z,8.33
2023-01-13T15:07:53.375Z,12.03
2023-01-13T15:10:27.922Z,14.70
2023-01-13T15:12:57.202Z,12.27
2023-01-13T15:15:28.107Z,12.90
2023-01-13T15:17:54.979Z,10.40
2023-01-13T15:20:23.671Z,13.73
2023-01-13T15:22:51.831Z,13.70
2023-01-13T15:25:19.102Z,12.97
2023-01-13T15:27:51.252Z,18.87
2023-01-13T15:30:20.100Z,18.03
2023-01-13T15:32:47.464Z,8.87
2023-01-13T15:35:16.336Z,7.90
2023-01-13T15:37:44.774Z,6.87
2023-01-13T15:40:15.090Z,8.20
2023-01-13T15:43:00.719Z,10.80
2023-01-13T15:45:46.808Z,12.90
2023-01-13T15:48:14.051Z,9.40
2023-01-13T15:50:40.953Z,7.57
2023-01-13T15:53:15.397Z,9.13
2023-01-13T15:55:45.241Z,11.67
2023-01-13T15:58:16.490Z,11.17
2023-01-13T16:00:43.501Z,11.70
2023-01-13T16:03:14.522Z,12.40
2023-01-13T16:05:42.295Z,10.13
2023-01-13T16:08:18.082Z,19.87
2023-01-13T16:10:46.737Z,18.30
2023-01-13T16:13:14.858Z,19.47
2023-01-13T16:15:49.099Z,16.03
2023-01-13T16:18:19.728Z,13.83
2023-01-13T16:20:47.375Z,20.47
2023-01-13T16:23:14.417Z,20.13
2023-01-13T16:25:44.762Z,18.37
2023-01-13T16:28:24.227Z,8.83
2023-01-13T16:30:51.684Z,12.03
2023-01-13T16:33:20.459Z,8.43
2023-01-13T16:36:10.419Z,9.03
2023-01-13T16:38:34.389Z,11.00
2023-01-13T16:41:01.435Z,12.97
2023-01-13T16:43:28.335Z,19.30
2023-01-13T16:45:55.417Z,15.00
2023-01-13T16:48:23.187Z,10.93
2023-01-13T16:50:50.248Z,12.77
2023-01-13T16:53:17.739Z,9.27
2023-01-13T16:55:44.908Z,10.37
2023-01-13T16:58:20.371Z,10.67
2023-01-13T17:00:48.053Z,16.90
2023-01-13T17:03:16.447Z,15.07
2023-01-13T17:05:44.982Z,21.00
2023-01-13T17:08:18.015Z,22.43
2023-01-13T17:10:46.330Z,23.40
2023-01-13T17:13:17.039Z,21.30
2023-01-13T17:15:45.832Z,24.13
2023-01-13T17:18:13.598Z,18.73
2023-01-13T17:20:41.114Z,19.80
2023-01-13T17:23:08.144Z,20.47
2023-01-13T17:25:35.071Z,19.43
2023-01-13T17:28:02.802Z,22.60
2023-01-13T17:30:29.771Z,18.97
2023-01-13T17:32:56.706Z,25.37
2023-01-13T17:35:25.140Z,21.77
2023-01-13T17:37:53.348Z,25.43
2023-01-13T17:40:20.704Z,27.43
2023-01-13T17:42:47.658Z,25.30
2023-01-13T17:45:14.604Z,20.67
2023-01-13T17:47:41.448Z,19.97
2023-01-13T17:50:08.898Z,18.53
2023-01-13T17:52:35.865Z,16.43
2023-01-13T17:55:02.853Z,14.40
2023-01-13T17:57:30.532Z,15.37
2023-01-13T17:59:59.603Z,13.77
2023-01-13T18:02:26.730Z,15.87
2023-01-13T18:04:53.618Z,14.23
2023-01-13T18:07:20.706Z,15.20
2023-01-13T18:09:47.736Z,13.80
2023-01-13T18:12:17.690Z,17.33
2023-01-13T18:14:44.556Z,20.33
2023-01-13T18:17:11.752Z,15.93
2023-01-13T18:19:57.153Z,18.33
2023-01-13T18:22:42.907Z,35.30
2023-01-13T18:25:31.979Z,48.00
2023-01-13T18:28:02.959Z,31.27
2023-01-13T18:30:30.536Z,22.63
2023-01-13T18:32:58.165Z,16.70
2023-01-13T18:35:25.295Z,18.53
2023-01-13T18:37:52.333Z,15.13
2023-01-13T19:31:06.945Z,11.00
2023-01-13T19:33:36.821Z,11.03
2023-01-13T19:36:05.155Z,9.17
2023-01-13T19:38:32.996Z,11.10
2023-01-13T19:41:05.880Z,12.10
2023-01-13T19:43:51.438Z,11.07
2023-01-13T19:46:18.399Z,10.83
2023-01-13T19:48:45.833Z,11.73
2023-01-13T19:51:14.569Z,12.60
2023-01-13T19:53:42.253Z,8.43
2023-01-13T19:56:14.422Z,14.17
2023-01-13T19:58:42.412Z,18.77
2023-01-13T20:01:10.389Z,12.33
2023-01-13T20:03:38.070Z,14.13
2023-01-13T20:06:10.853Z,13.60
2023-01-13T20:08:38.687Z,11.37
2023-01-13T20:11:25.298Z,13.57
2023-01-13T20:13:52.517Z,12.43
2023-01-13T20:16:19.788Z,17.10
2023-01-13T20:18:50.371Z,17.93
2023-01-13T20:21:17.763Z,27.83
2023-01-13T20:23:45.012Z,24.00
2023-01-13T20:26:12.055Z,25.07
2023-01-13T20:28:40.661Z,20.63
2023-01-13T20:31:10.041Z,22.93
2023-01-13T20:33:39.707Z,18.60
2023-01-13T20:36:07.996Z,17.53
2023-01-13T20:38:38.159Z,26.87
2023-01-13T20:41:25.803Z,25.10
2023-01-13T20:43:54.008Z,19.70
2023-01-13T20:46:22.934Z,17.70
2023-01-13T20:48:50.813Z,20.53
2023-01-13T20:51:17.996Z,19.90
2023-01-13T20:53:44.955Z,17.23
2023-01-13T20:56:13.477Z,15.80
2023-01-13T20:58:41.583Z,13.33
2023-01-13T21:01:08.587Z,14.47
2023-01-13T21:03:35.582Z,15.20
2023-01-13T21:06:02.558Z,15.83
2023-01-13T21:08:30.669Z,12.60
2023-01-13T21:11:05.992Z,12.57
2023-01-13T21:13:51.392Z,13.93
2023-01-13T21:16:18.368Z,14.07
2023-01-13T21:19:03.922Z,15.30
2023-01-13T21:21:31.549Z,15.77
2023-01-13T21:23:58.536Z,21.23
2023-01-13T21:26:25.527Z,22.13
2023-01-13T21:28:57.471Z,16.53
2023-01-13T21:31:26.965Z,14.13
2023-01-13T21:33:54.969Z,15.23
2023-01-13T21:36:22.858Z,15.20
2023-01-13T21:38:53.961Z,16.07
2023-01-13T21:41:42.032Z,16.13
2023-01-13T21:44:36.865Z,19.17
2023-01-13T21:47:22.963Z,20.80
2023-01-13T21:49:49.902Z,25.57
2023-01-13T21:52:17.362Z,27.03
2023-01-13T21:55:03.178Z,24.77
2023-01-13T21:57:30.203Z,27.03
2023-01-13T21:59:57.325Z,25.90
2023-01-13T22:02:35.407Z,22.23
2023-01-13T22:05:04.339Z,19.47
2023-01-13T22:07:34.273Z,16.07
2023-01-13T22:10:01.739Z,18.30
2023-01-13T22:12:30.684Z,20.67
2023-01-13T22:15:00.469Z,18.50
2023-01-13T22:17:29.040Z,17.03
2023-01-13T22:19:59.334Z,18.97
2023-01-13T22:22:26.697Z,19.53
2023-01-13T22:24:53.960Z,20.40
2023-01-13T22:27:24.267Z,21.57
2023-01-13T22:29:52.779Z,21.60
2023-01-13T22:32:21.003Z,17.57
2023-01-13T22:34:48.451Z,16.40
2023-01-13T22:37:15.649Z,19.97
2023-01-13T22:39:42.750Z,16.33
2023-01-13T22:42:10.254Z,19.67
2023-01-13T22:44:37.340Z,19.07
2023-01-13T22:47:04.746Z,16.73
2023-01-13T22:49:31.667Z,18.00
2023-01-13T22:51:58.585Z,16.13
2023-01-13T22:54:25.545Z,18.97
2023-01-13T22:56:52.432Z,18.50
2023-01-13T22:59:21.553Z,15.77
2023-01-13T23:01:48.639Z,14.93
2023-01-13T23:04:15.635Z,19.67
2023-01-13T23:06:42.928Z,16.90
2023-01-13T23:09:10.144Z,15.40
2023-01-13T23:11:37.384Z,16.70
2023-01-13T23:14:06.523Z,15.83
2023-01-13T23:16:37.111Z,14.57
2023-01-13T23:19:05.905Z,16.17
2023-01-13T23:21:36.193Z,16.30
2023-01-13T23:24:05.331Z,18.03
2023-01-13T23:26:33.438Z,15.63
2023-01-13T23:29:12.162Z,17.20
2023-01-13T23:31:39.360Z,18.27
2023-01-13T23:34:06.516Z,15.73
2023-01-13T23:36:36.980Z,18.17
2023-01-13T23:39:04.395Z,14.93
2023-01-13T23:41:31.304Z,15.77
2023-01-13T23:44:00.472Z,18.57
2023-01-13T23:46:30.259Z,14.23
2023-01-13T23:48:57.493Z,13.70
2023-01-13T23:51:26.590Z,14.90
2023-01-13T23:53:54.256Z,17.47
2023-01-13T23:56:25.066Z,14.00
2023-01-13T23:58:52.788Z,16.13
